This is the latest recevied weather packets stored in our database for station/object VE7OTD. If no packets are shown the sender has not sent any weather packets the latest 10 day(s).
| Time | Temp. | Humidity | Pressure | Rain* | Wind** | Luminosity | Snow |
|---|---|---|---|---|---|---|---|
| 1777999173 | 19.44° C | 69% | 1013.5 hPa | 0 mm | - | - | - |
| 1777997370 | 18.89° C | 70% | 1013.4 hPa | 0 mm | - | - | - |
| 1777995561 | 19.44° C | 62% | 1013.3 hPa | 0 mm | - | - | - |
| 1777993755 | 18.33° C | 67% | 1012.9 hPa | 0 mm | - | - | - |
| 1777991941 | 13.89° C | 80% | 1012.6 hPa | 0 mm | - | - | - |
| 1777988310 | 11.67° C | 88% | 1012.1 hPa | 0 mm | - | - | - |
| 1777986496 | 11.67° C | 86% | 1011.8 hPa | 0 mm | - | - | - |
| 1777984681 | 12.22° C | 83% | 1011.5 hPa | 0 mm | - | - | - |
| 1777982850 | 13.33° C | 80% | 1011.1 hPa | 0 mm | - | - | - |
| 1777981035 | 13.33° C | 78% | 1010.9 hPa | 0 mm | - | - | - |
| 1777979221 | 13.89° C | 76% | 1010.7 hPa | 0 mm | - | - | - |
| 1777977405 | 13.33° C | 78% | 1010.4 hPa | 0 mm | - | - | - |
| 1777975591 | 14.44° C | 76% | 1010.2 hPa | 0 mm | - | - | - |
| 1777973775 | 13.33° C | 83% | 1010 hPa | 0 mm | - | - | - |
| 1777971960 | 13.33° C | 86% | 1009.7 hPa | 0 mm | - | - | - |
| 1777970144 | 13.89° C | 85% | 1009.5 hPa | 0 mm | - | - | - |
| 1777968345 | 14.44° C | 83% | 1009.5 hPa | 0 mm | - | - | - |
| 1777966545 | 16.67° C | 73% | 1009.1 hPa | 0 mm | - | - | - |
| 1777964729 | 16.67° C | 70% | 1008.8 hPa | 0 mm | - | - | - |
| 1777962922 | 17.22° C | 60% | 1008.4 hPa | 0 mm | - | - | - |
| 1777961068 | 16.67° C | 60% | 1008.1 hPa | 0 mm | - | - | - |
| 1777959253 | 16.67° C | 58% | 1007.7 hPa | 0 mm | - | - | - |
| 1777957438 | 17.22° C | 53% | 1007.6 hPa | 0 mm | - | - | - |
| 1777955624 | 18.33° C | 50% | 1007.4 hPa | 0 mm | - | - | - |
| 1777953826 | 20° C | 44% | 1007.2 hPa | 0 mm | - | - | - |
* Rain latest hour (hover to see other rain measurements)
** Current wind speed in m/s (hover to see current wind gust speed)